createdAt,value
2023-03-09T00:02:00.237Z,26.80
2023-03-09T00:04:27.844Z,29.10
2023-03-09T00:06:55.349Z,32.80
2023-03-09T00:09:22.963Z,29.37
2023-03-09T00:11:50.582Z,28.97
2023-03-09T00:14:19.524Z,27.97
2023-03-09T00:16:47.038Z,18.83
2023-03-09T00:19:14.965Z,26.47
2023-03-09T00:21:42.651Z,17.60
2023-03-09T00:24:15.105Z,19.83
2023-03-09T00:26:43.754Z,18.57
2023-03-09T00:29:12.514Z,25.73
2023-03-09T00:31:40.533Z,24.13
2023-03-09T00:34:08.536Z,16.17
2023-03-09T00:36:36.052Z,14.03
2023-03-09T00:39:03.575Z,23.87
2023-03-09T00:41:31.236Z,22.87
2023-03-09T00:44:02.487Z,25.10
2023-03-09T00:46:30.924Z,21.73
2023-03-09T00:48:58.914Z,24.60
2023-03-09T00:51:27.190Z,26.77
2023-03-09T00:53:56.024Z,16.20
2023-03-09T00:56:24.575Z,23.97
2023-03-09T00:58:52.057Z,23.93
2023-03-09T01:01:20.132Z,26.20
2023-03-09T01:03:47.923Z,27.17
2023-03-09T01:06:15.620Z,19.33
2023-03-09T01:08:43.663Z,20.47
2023-03-09T01:11:12.375Z,23.43
2023-03-09T01:13:39.924Z,17.43
2023-03-09T01:16:07.596Z,23.73
2023-03-09T01:18:35.185Z,20.50
2023-03-09T01:21:02.741Z,19.10
2023-03-09T01:23:30.248Z,23.93
2023-03-09T01:25:57.911Z,25.00
2023-03-09T01:28:25.470Z,24.13
2023-03-09T01:30:53.119Z,27.87
2023-03-09T01:33:20.687Z,22.23
2023-03-09T01:35:48.326Z,23.23
2023-03-09T01:38:15.976Z,26.83
2023-03-09T01:40:46.085Z,21.83
2023-03-09T01:43:29.003Z,12.63
2023-03-09T01:46:15.255Z,26.67
2023-03-09T01:48:43.232Z,23.20
2023-03-09T01:51:10.732Z,30.73
2023-03-09T01:53:38.447Z,31.33
2023-03-09T01:56:06.133Z,33.10
2023-03-09T01:58:34.727Z,32.60
2023-03-09T02:01:02.276Z,29.43
2023-03-09T02:03:31.466Z,30.70
2023-03-09T02:06:05.002Z,27.70
2023-03-09T02:08:33.427Z,31.77
2023-03-09T02:11:03.442Z,32.97
2023-03-09T02:13:32.714Z,29.63
2023-03-09T02:16:00.293Z,27.50
2023-03-09T02:18:28.131Z,34.37
2023-03-09T02:20:55.586Z,35.07
2023-03-09T02:23:33.433Z,29.17
2023-03-09T02:26:04.008Z,31.80
2023-03-09T02:28:31.678Z,28.83
2023-03-09T02:30:59.250Z,33.13
2023-03-09T02:33:30.615Z,41.57
2023-03-09T02:35:59.324Z,30.63
2023-03-09T02:38:27.177Z,35.10
2023-03-09T02:40:56.246Z,31.70
2023-03-09T02:43:26.270Z,29.93
2023-03-09T02:45:53.865Z,32.73
2023-03-09T02:48:21.372Z,33.77
2023-03-09T02:50:48.958Z,32.67
2023-03-09T02:53:16.531Z,36.30
2023-03-09T02:55:44.106Z,33.20
2023-03-09T02:58:12.034Z,30.23
2023-03-09T03:00:39.687Z,29.73
2023-03-09T03:03:07.220Z,26.20
2023-03-09T03:05:34.843Z,33.63
2023-03-09T03:08:02.560Z,29.30
2023-03-09T03:10:30.087Z,30.83
2023-03-09T03:12:57.608Z,33.73
2023-03-09T03:15:25.257Z,25.53
2023-03-09T03:17:52.767Z,30.13
2023-03-09T03:20:20.358Z,41.57
2023-03-09T03:22:47.962Z,36.17
2023-03-09T03:25:15.548Z,34.47
2023-03-09T03:27:43.053Z,36.83
2023-03-09T03:30:11.613Z,33.20
2023-03-09T03:32:39.265Z,34.20
2023-03-09T03:35:07.137Z,31.60
2023-03-09T03:37:34.647Z,35.87
2023-03-09T03:40:02.229Z,30.93
2023-03-09T03:42:29.716Z,35.63
2023-03-09T03:44:57.308Z,33.53
2023-03-09T03:47:24.840Z,31.87
2023-03-09T03:49:52.433Z,35.37
2023-03-09T03:52:19.897Z,33.27
2023-03-09T03:54:47.495Z,32.53
2023-03-09T03:57:14.977Z,31.40
2023-03-09T03:59:42.536Z,39.87
2023-03-09T04:02:10.025Z,31.93
2023-03-09T04:04:37.600Z,32.50
2023-03-09T04:07:05.144Z,32.50
2023-03-09T04:09:32.679Z,30.73
2023-03-09T04:12:00.149Z,31.60
2023-03-09T04:14:27.784Z,37.60
2023-03-09T04:16:57.645Z,35.13
2023-03-09T04:19:25.578Z,35.83
2023-03-09T04:21:53.044Z,31.67
2023-03-09T04:24:20.624Z,30.50
2023-03-09T04:26:48.130Z,36.87
2023-03-09T04:29:15.689Z,34.83
2023-03-09T04:31:43.188Z,32.60
2023-03-09T04:34:13.826Z,35.97
2023-03-09T04:36:41.357Z,42.07
2023-03-09T04:39:08.858Z,35.47
2023-03-09T04:41:36.695Z,44.73
2023-03-09T04:44:04.437Z,34.83
2023-03-09T04:46:32.171Z,38.03
2023-03-09T04:48:59.891Z,33.20
2023-03-09T04:51:27.590Z,40.90
2023-03-09T04:53:55.077Z,36.83
2023-03-09T04:56:22.710Z,34.57
2023-03-09T04:58:50.193Z,36.17
2023-03-09T05:01:17.965Z,34.60
2023-03-09T05:03:45.554Z,33.37
2023-03-09T05:06:13.158Z,33.43
2023-03-09T05:08:40.723Z,32.40
2023-03-09T05:11:08.225Z,36.67
2023-03-09T05:13:35.769Z,37.10
2023-03-09T05:16:07.395Z,31.07
2023-03-09T05:18:35.718Z,30.83
2023-03-09T05:21:07.341Z,35.93
2023-03-09T05:23:35.392Z,37.93
2023-03-09T05:26:03.447Z,34.57
2023-03-09T05:28:30.987Z,30.50
2023-03-09T05:30:58.602Z,32.10
2023-03-09T05:33:26.223Z,39.13
2023-03-09T05:35:53.899Z,38.90
2023-03-09T05:38:21.719Z,36.83
2023-03-09T05:40:49.230Z,30.50
2023-03-09T05:43:16.808Z,31.37
2023-03-09T05:45:44.501Z,34.37
2023-03-09T05:48:12.037Z,37.27
2023-03-09T05:50:39.800Z,32.57
2023-03-09T05:53:07.640Z,35.33
2023-03-09T05:55:35.161Z,33.07
2023-03-09T05:58:02.752Z,38.20
2023-03-09T06:00:30.310Z,32.27
2023-03-09T06:02:58.071Z,33.13
2023-03-09T06:05:25.646Z,33.63
2023-03-09T06:07:53.218Z,35.93
2023-03-09T06:10:20.693Z,38.80
2023-03-09T06:12:48.262Z,36.73
2023-03-09T06:15:15.776Z,32.50
2023-03-09T06:17:43.333Z,33.53
2023-03-09T06:20:11.244Z,32.43
2023-03-09T06:22:38.832Z,31.67
2023-03-09T06:25:06.517Z,37.13
2023-03-09T06:27:35.322Z,35.30
2023-03-09T06:30:02.843Z,31.93
2023-03-09T06:32:32.610Z,30.47
2023-03-09T06:35:00.183Z,30.77
2023-03-09T06:37:28.295Z,31.70
2023-03-09T06:39:56.536Z,35.57
2023-03-09T06:42:24.151Z,33.13
2023-03-09T06:44:51.829Z,32.20
2023-03-09T06:47:19.365Z,29.27
2023-03-09T06:49:46.891Z,31.37
2023-03-09T06:52:14.447Z,30.87
2023-03-09T06:54:41.927Z,30.27
2023-03-09T06:57:10.082Z,30.30
2023-03-09T06:59:37.615Z,33.07
2023-03-09T07:02:05.218Z,32.30
2023-03-09T07:04:32.854Z,31.30
2023-03-09T07:07:00.415Z,31.70
2023-03-09T07:09:27.918Z,37.53
2023-03-09T07:11:55.565Z,33.90
2023-03-09T07:14:23.035Z,34.10
2023-03-09T07:16:54.290Z,35.07
2023-03-09T07:19:22.408Z,32.27
2023-03-09T07:21:50.579Z,33.47
2023-03-09T07:24:19.979Z,34.17
2023-03-09T07:26:51.020Z,31.07
2023-03-09T07:29:18.578Z,30.97
2023-03-09T07:31:46.101Z,33.43
2023-03-09T07:34:13.730Z,30.03
2023-03-09T07:36:41.324Z,30.10
2023-03-09T07:39:08.900Z,29.90
2023-03-09T07:41:36.414Z,30.63
2023-03-09T07:44:04.068Z,29.97
2023-03-09T07:46:31.698Z,31.83
2023-03-09T07:48:59.270Z,28.03
2023-03-09T07:51:26.751Z,29.27
2023-03-09T07:53:54.341Z,29.47
2023-03-09T07:56:21.855Z,31.70
2023-03-09T07:58:49.437Z,31.07
2023-03-09T08:01:18.518Z,28.13
2023-03-09T08:03:46.857Z,31.67
2023-03-09T08:06:14.885Z,33.40
2023-03-09T08:08:42.734Z,31.00
2023-03-09T08:11:10.262Z,30.13
2023-03-09T08:13:37.998Z,30.67
2023-03-09T08:16:07.061Z,35.67
2023-03-09T08:18:35.350Z,34.17
2023-03-09T08:21:06.703Z,31.33
2023-03-09T08:23:35.557Z,33.77
2023-03-09T08:26:03.321Z,30.20
2023-03-09T08:28:31.298Z,33.23
2023-03-09T08:30:58.838Z,30.53
2023-03-09T08:33:26.884Z,34.30
2023-03-09T08:35:54.427Z,32.63
2023-03-09T08:38:22.166Z,30.67
2023-03-09T08:40:49.647Z,31.43
2023-03-09T08:43:17.327Z,30.30
2023-03-09T08:45:44.860Z,32.43
2023-03-09T08:48:12.413Z,33.53
2023-03-09T08:50:39.927Z,30.87
2023-03-09T08:53:07.540Z,31.07
2023-03-09T08:55:35.071Z,31.17
2023-03-09T08:58:02.709Z,33.77
2023-03-09T09:00:31.214Z,31.00
2023-03-09T09:02:58.952Z,30.13
2023-03-09T09:05:26.551Z,29.43
2023-03-09T09:07:54.155Z,33.00
2023-03-09T09:10:34.682Z,31.67
2023-03-09T09:13:03.206Z,31.23
2023-03-09T09:15:30.821Z,31.53
2023-03-09T09:17:58.465Z,30.30
2023-03-09T09:20:26.230Z,31.03
2023-03-09T09:22:53.862Z,30.90
2023-03-09T09:25:21.390Z,27.57
2023-03-09T09:27:50.689Z,28.07
2023-03-09T09:30:19.171Z,30.13
2023-03-09T09:32:47.033Z,28.80
2023-03-09T09:35:14.632Z,30.10
2023-03-09T09:37:42.370Z,30.57
2023-03-09T09:40:14.578Z,29.53
2023-03-09T09:42:43.314Z,27.97
2023-03-09T09:45:31.122Z,28.80
2023-03-09T09:48:00.557Z,28.67
2023-03-09T09:50:48.288Z,28.00
2023-03-09T09:53:18.894Z,27.30
2023-03-09T09:55:46.577Z,27.93
2023-03-09T09:58:27.537Z,28.90
2023-03-09T10:00:56.175Z,28.73
2023-03-09T10:03:23.937Z,27.90
2023-03-09T10:06:00.225Z,25.87
2023-03-09T10:08:46.434Z,26.73
2023-03-09T10:11:28.630Z,23.20
2023-03-09T10:14:05.310Z,24.10
2023-03-09T10:16:39.168Z,24.73
2023-03-09T10:19:09.200Z,23.93
2023-03-09T10:21:49.699Z,25.80
2023-03-09T10:24:24.504Z,25.10
2023-03-09T10:26:52.194Z,26.43
2023-03-09T10:29:24.728Z,25.80
2023-03-09T10:32:00.767Z,25.63
2023-03-09T10:34:28.418Z,25.60
2023-03-09T10:36:59.677Z,26.37
2023-03-09T10:39:29.020Z,25.27
2023-03-09T10:41:57.573Z,25.03
2023-03-09T10:44:25.635Z,24.57
2023-03-09T10:47:03.177Z,24.67
2023-03-09T10:49:31.509Z,24.30
2023-03-09T10:52:04.078Z,26.33
2023-03-09T10:54:31.645Z,25.10
2023-03-09T10:56:59.401Z,26.03
2023-03-09T10:59:27.789Z,25.73
2023-03-09T11:01:56.911Z,24.57
2023-03-09T11:04:25.633Z,24.93
2023-03-09T11:06:53.123Z,22.13
2023-03-09T11:09:23.045Z,22.00
2023-03-09T11:11:50.580Z,23.60
2023-03-09T11:14:25.545Z,24.20
2023-03-09T11:16:54.472Z,23.70
2023-03-09T11:19:22.361Z,23.27
2023-03-09T11:21:59.093Z,23.17
2023-03-09T11:24:32.166Z,23.63
2023-03-09T11:27:07.646Z,24.73
2023-03-09T11:29:35.201Z,24.83
2023-03-09T11:32:02.981Z,23.63
2023-03-09T11:34:34.636Z,25.50
2023-03-09T11:37:11.360Z,25.33
2023-03-09T11:39:43.374Z,25.10
2023-03-09T11:42:13.459Z,22.77
2023-03-09T11:44:45.261Z,22.63
2023-03-09T11:47:31.549Z,23.80
2023-03-09T11:50:02.949Z,26.47
2023-03-09T11:52:33.740Z,25.77
2023-03-09T11:55:03.197Z,24.47
2023-03-09T11:57:31.721Z,27.27
2023-03-09T12:00:04.806Z,26.27
2023-03-09T12:02:47.837Z,25.60
2023-03-09T12:05:16.635Z,25.93
2023-03-09T12:07:47.254Z,24.50
2023-03-09T12:10:19.244Z,26.30
2023-03-09T12:12:50.524Z,25.17
2023-03-09T12:15:18.055Z,23.97
2023-03-09T12:18:06.069Z,23.67
2023-03-09T12:20:39.600Z,26.17
2023-03-09T12:23:27.194Z,24.97
2023-03-09T12:25:58.337Z,25.27
2023-03-09T12:28:25.962Z,23.67
2023-03-09T12:30:57.127Z,28.17
2023-03-09T12:33:42.829Z,24.37
2023-03-09T12:36:22.520Z,24.10
2023-03-09T12:39:08.534Z,22.63
2023-03-09T12:41:54.996Z,24.23
2023-03-09T12:44:42.470Z,25.53
2023-03-09T12:47:22.112Z,24.37
2023-03-09T12:49:50.762Z,22.47
2023-03-09T12:52:24.704Z,27.90
2023-03-09T12:55:00.044Z,24.90
2023-03-09T12:57:27.807Z,23.57
2023-03-09T12:59:55.336Z,25.10
2023-03-09T13:02:34.016Z,24.70
2023-03-09T13:05:20.880Z,24.40
2023-03-09T13:07:56.389Z,24.40
2023-03-09T13:10:27.771Z,25.57
2023-03-09T13:12:55.880Z,23.53
2023-03-09T13:15:26.302Z,24.83
2023-03-09T13:18:25.501Z,26.07
2023-03-09T13:20:54.249Z,25.63
2023-03-09T13:23:23.335Z,22.87
2023-03-09T13:25:52.040Z,23.93
2023-03-09T13:28:22.676Z,23.20
2023-03-09T13:30:51.352Z,24.30
2023-03-09T13:33:21.089Z,21.63
2023-03-09T13:35:50.396Z,23.23
2023-03-09T13:38:23.833Z,22.07
2023-03-09T13:40:55.915Z,21.37
2023-03-09T13:43:26.384Z,24.00
2023-03-09T13:45:58.629Z,22.47
2023-03-09T13:48:26.274Z,23.97
2023-03-09T13:50:54.206Z,21.17
2023-03-09T13:53:23.693Z,21.97
2023-03-09T13:56:00.129Z,22.97
2023-03-09T13:58:28.684Z,22.73
2023-03-09T14:00:57.521Z,23.93
2023-03-09T14:03:25.938Z,24.43
2023-03-09T14:08:47.928Z,25.27
2023-03-09T14:11:21.386Z,23.97
2023-03-09T14:13:55.018Z,27.63
2023-03-09T14:16:22.677Z,25.13
2023-03-09T14:18:51.863Z,20.70
2023-03-09T14:21:19.403Z,25.57
2023-03-09T14:23:47.018Z,24.40
2023-03-09T14:26:23.780Z,24.80
2023-03-09T14:29:02.849Z,25.87
2023-03-09T14:31:30.720Z,26.10
2023-03-09T14:34:02.766Z,25.30
2023-03-09T14:36:50.687Z,26.13
2023-03-09T14:39:23.757Z,24.50
2023-03-09T14:42:16.163Z,23.00
2023-03-09T14:45:07.190Z,22.93
2023-03-09T14:47:34.789Z,24.33
2023-03-09T14:50:02.289Z,23.37
2023-03-09T14:52:30.348Z,24.13
2023-03-09T14:54:59.373Z,23.03
2023-03-09T14:57:27.063Z,20.80
2023-03-09T14:59:54.596Z,20.63
2023-03-09T15:02:22.482Z,20.27
2023-03-09T15:04:50.205Z,20.40
2023-03-09T15:07:19.423Z,19.73
2023-03-09T15:09:47.013Z,19.83
2023-03-09T15:12:16.992Z,19.27
2023-03-09T15:14:45.749Z,19.30
2023-03-09T15:17:17.820Z,18.47
2023-03-09T15:19:45.541Z,19.37
2023-03-09T15:22:14.524Z,18.10
2023-03-09T15:24:42.403Z,17.97
2023-03-09T15:27:10.445Z,16.50
2023-03-09T15:29:38.557Z,19.00
2023-03-09T15:32:07.073Z,19.43
2023-03-09T15:34:35.611Z,19.30
2023-03-09T15:37:03.195Z,19.97
2023-03-09T15:39:30.943Z,19.73
2023-03-09T15:42:00.982Z,19.27
2023-03-09T15:44:30.563Z,21.10
2023-03-09T15:47:00.060Z,21.30
2023-03-09T15:49:27.590Z,19.30
2023-03-09T15:51:55.173Z,20.77
2023-03-09T15:54:22.688Z,21.03
2023-03-09T15:56:50.527Z,22.30
2023-03-09T15:59:18.121Z,20.70
2023-03-09T16:01:46.244Z,21.67
2023-03-09T16:04:13.881Z,25.30
2023-03-09T16:06:41.468Z,22.37
2023-03-09T16:09:09.052Z,21.47
2023-03-09T16:11:36.859Z,22.33
2023-03-09T16:14:04.453Z,20.47
2023-03-09T16:16:32.096Z,22.20
2023-03-09T16:18:59.644Z,22.03
2023-03-09T16:21:27.200Z,22.00
2023-03-09T16:23:54.702Z,20.50
2023-03-09T16:26:23.220Z,20.93
2023-03-09T16:28:50.916Z,21.97
2023-03-09T16:31:20.123Z,22.17
2023-03-09T16:33:47.727Z,21.50
2023-03-09T16:36:15.462Z,22.03
2023-03-09T16:38:43.039Z,21.17
2023-03-09T16:41:11.952Z,22.40
2023-03-09T16:43:39.485Z,18.73
2023-03-09T16:46:07.999Z,22.73
2023-03-09T16:48:35.549Z,20.00
2023-03-09T16:51:03.913Z,18.87
2023-03-09T16:53:32.052Z,18.97
2023-03-09T16:56:04.188Z,19.57
2023-03-09T16:58:32.381Z,19.03
2023-03-09T17:00:59.891Z,18.33
2023-03-09T17:03:27.962Z,21.90
2023-03-09T17:05:55.717Z,19.23
2023-03-09T17:08:23.279Z,22.77
2023-03-09T17:10:51.081Z,19.83
2023-03-09T17:13:18.632Z,17.47
2023-03-09T17:15:46.282Z,20.13
2023-03-09T17:18:17.577Z,23.20
2023-03-09T17:20:48.537Z,20.57
2023-03-09T17:23:16.189Z,22.90
2023-03-09T17:25:43.840Z,22.20
2023-03-09T17:28:11.492Z,21.87
2023-03-09T17:30:46.127Z,21.53
2023-03-09T17:33:14.529Z,20.87
2023-03-09T17:35:42.287Z,24.90
2023-03-09T17:38:11.351Z,22.50
2023-03-09T17:40:56.927Z,24.23
2023-03-09T17:43:24.989Z,25.47
2023-03-09T17:45:59.716Z,30.27
2023-03-09T17:48:27.635Z,23.40
2023-03-09T17:51:02.419Z,23.37
2023-03-09T17:53:30.201Z,22.90
2023-03-09T17:56:01.672Z,23.37
2023-03-09T17:58:29.494Z,22.67
2023-03-09T18:00:57.483Z,23.23
2023-03-09T18:03:25.203Z,23.33
2023-03-09T18:05:52.764Z,22.97
2023-03-09T18:08:20.471Z,22.50
2023-03-09T18:10:48.000Z,21.87
2023-03-09T18:13:15.555Z,22.33
2023-03-09T18:15:43.070Z,23.90
2023-03-09T18:18:10.845Z,21.20
2023-03-09T18:20:38.374Z,21.23
2023-03-09T18:23:06.115Z,23.17
2023-03-09T18:25:33.636Z,22.40
2023-03-09T18:28:01.403Z,21.37
2023-03-09T18:30:29.000Z,23.20
2023-03-09T18:32:57.321Z,21.07
2023-03-09T18:35:25.053Z,22.47
2023-03-09T18:37:53.428Z,18.23
2023-03-09T18:40:20.949Z,16.43
2023-03-09T18:42:48.512Z,17.00
2023-03-09T18:45:16.048Z,15.60
2023-03-09T18:47:43.546Z,13.80
2023-03-09T18:50:11.512Z,13.37
2023-03-09T18:52:39.111Z,13.27
2023-03-09T18:55:06.982Z,13.53
2023-03-09T18:57:34.704Z,13.77
2023-03-09T19:00:02.250Z,11.87
2023-03-09T19:02:29.885Z,11.03
2023-03-09T19:04:57.581Z,9.67
2023-03-09T19:07:25.204Z,7.30
2023-03-09T19:09:53.263Z,6.50
2023-03-09T19:12:20.824Z,5.80
2023-03-09T19:14:57.368Z,5.50
2023-03-09T19:17:26.621Z,5.33
2023-03-09T19:19:54.412Z,5.47
2023-03-09T19:22:24.210Z,4.40
2023-03-09T19:24:52.104Z,3.77
2023-03-09T19:27:19.646Z,4.67
2023-03-09T19:29:47.125Z,4.47
2023-03-09T19:32:14.847Z,5.20
2023-03-09T19:34:42.489Z,4.37
2023-03-09T19:37:10.118Z,4.57
2023-03-09T19:39:37.717Z,5.20
2023-03-09T19:42:05.426Z,4.60
2023-03-09T19:44:33.137Z,3.73
2023-03-09T19:47:00.971Z,4.33
2023-03-09T19:49:28.537Z,4.20
2023-03-09T19:51:56.500Z,4.30
2023-03-09T19:54:24.908Z,5.80
2023-03-09T19:56:52.598Z,5.37
2023-03-09T19:59:20.106Z,4.90
2023-03-09T20:01:49.127Z,4.50
2023-03-09T20:04:20.694Z,5.03
2023-03-09T20:06:49.982Z,4.90
2023-03-09T20:09:18.350Z,4.23
2023-03-09T20:11:45.986Z,4.93
2023-03-09T20:14:13.834Z,4.63
2023-03-09T20:16:41.974Z,4.77
2023-03-09T20:19:11.669Z,4.47
2023-03-09T20:21:39.215Z,5.07
2023-03-09T20:24:08.059Z,5.07
2023-03-09T20:26:36.921Z,5.13
2023-03-09T20:29:04.500Z,3.73
2023-03-09T20:31:37.078Z,4.83
2023-03-09T20:34:08.291Z,3.77
2023-03-09T20:36:36.676Z,4.93
2023-03-09T20:39:05.205Z,4.87
2023-03-09T20:41:32.816Z,3.60
2023-03-09T20:44:00.365Z,4.50
2023-03-09T20:46:28.260Z,4.57
2023-03-09T20:48:57.052Z,4.13
2023-03-09T20:51:25.502Z,4.53
2023-03-09T20:53:53.872Z,3.50
2023-03-09T20:56:22.567Z,4.30
2023-03-09T20:58:50.122Z,3.97
2023-03-09T21:01:21.987Z,3.77
2023-03-09T21:03:49.641Z,4.80
2023-03-09T21:06:17.902Z,4.43
2023-03-09T21:08:45.882Z,4.40
2023-03-09T21:11:14.738Z,4.27
2023-03-09T21:13:42.460Z,3.17
2023-03-09T21:16:11.963Z,3.80
2023-03-09T21:18:39.633Z,4.07
2023-03-09T21:21:07.241Z,3.20
2023-03-09T21:23:34.847Z,3.93
2023-03-09T21:26:03.715Z,4.33
2023-03-09T21:28:31.400Z,4.73
2023-03-09T21:30:59.186Z,4.93
2023-03-09T21:33:26.830Z,5.00
2023-03-09T21:35:54.477Z,4.87
2023-03-09T21:38:22.319Z,4.73
2023-03-09T21:40:49.860Z,5.00
2023-03-09T21:43:17.446Z,5.20
2023-03-09T21:45:45.106Z,4.77
2023-03-09T21:48:12.702Z,6.13
2023-03-09T21:50:40.220Z,6.50
2023-03-09T21:53:07.863Z,6.13
2023-03-09T21:55:35.566Z,5.83
2023-03-09T21:58:03.100Z,5.50
2023-03-09T22:00:30.617Z,5.90
2023-03-09T22:02:58.781Z,5.27
2023-03-09T22:05:26.559Z,5.40
2023-03-09T22:07:54.908Z,4.83
2023-03-09T22:10:22.609Z,5.67
2023-03-09T22:12:50.299Z,5.83
2023-03-09T22:15:17.874Z,5.30
2023-03-09T22:17:45.482Z,5.00
2023-03-09T22:20:13.169Z,5.30
2023-03-09T22:22:41.952Z,5.60
2023-03-09T22:25:10.648Z,5.13
2023-03-09T22:27:38.260Z,4.97
2023-03-09T22:30:06.514Z,4.77
2023-03-09T22:32:34.223Z,4.97
2023-03-09T22:35:01.740Z,5.43
2023-03-09T22:37:29.328Z,4.23
2023-03-09T22:39:56.843Z,4.87
2023-03-09T22:42:24.502Z,5.40
2023-03-09T22:44:52.580Z,5.17
2023-03-09T22:47:20.557Z,4.90
2023-03-09T22:49:48.321Z,4.73
2023-03-09T22:52:15.872Z,4.70
2023-03-09T22:54:47.356Z,4.13
2023-03-09T22:57:14.962Z,4.37
2023-03-09T22:59:42.513Z,4.23
2023-03-09T23:02:10.429Z,4.70
2023-03-09T23:04:37.917Z,4.20
2023-03-09T23:07:05.536Z,3.97
2023-03-09T23:09:33.027Z,3.10
2023-03-09T23:12:00.644Z,3.50
2023-03-09T23:14:28.329Z,3.37
2023-03-09T23:16:56.048Z,3.30
2023-03-09T23:19:23.629Z,2.40
2023-03-09T23:21:51.201Z,2.60
2023-03-09T23:24:18.736Z,2.23
2023-03-09T23:26:46.347Z,2.03
2023-03-09T23:29:13.842Z,2.43
2023-03-09T23:31:41.468Z,2.50
2023-03-09T23:34:09.038Z,2.10
2023-03-09T23:36:36.596Z,1.53
2023-03-09T23:39:04.595Z,1.57
2023-03-09T23:41:32.650Z,1.83
2023-03-09T23:44:00.138Z,1.37
2023-03-09T23:46:27.827Z,1.50
2023-03-09T23:48:55.359Z,1.20
2023-03-09T23:51:23.333Z,1.00
2023-03-09T23:53:51.006Z,1.13
2023-03-09T23:56:19.072Z,0.80
2023-03-09T23:58:48.260Z,1.03
